Hlavní strana
METAR-TAF:

METAR-TAF

Letiště :

Middleton Field

Evergreen, Alabama, Spojené státy americké

zeměpisná šířka: 31-25-08N, zeměpisná délka: 087-02-53W, výška: 78 m

Aktuální stav počasí

Zpráva byla vytvořena před 46 minutami, v 16:53 UTC
Severoseverozápadní vítr 10 kt s nárazy do 17 kt
Teplota 14°C
Vlhkost vzduchu 55%
Tlak 1021 hPa
Viditelnost: 16.1 km
Jasno

METAR: KGZH 151653Z AUTO 33010G17KT 10SM CLR 14/05 A3015 RMK AO2 SLP210 T01390050

Čas: 11:39 (17:39 UTC)


TAF: chybějící

Stav a předpovědi počasí z více než 4 000 letišť (zprávy METAR a TAF).

Červené a žluté tečky na mapě představují dostupné meteorologické stanice.

Když kurzor umístíte na tečku, zobrazí se název stanice.

Pak kliknutím zobrazíte stav a předpověď počasí.

Chcete-li změnit mapu, kliknutím na zelené tlačítko se znaménkem +mapu přiblížíte, kliknutím na zelené tlačítko se znaménkem – mapu oddálíte a kliknutím na zelené šipky přejdete na sousední mapy.


METAR-TAF: